Time;durP1;ratioP1;P1;durP2;ratioP2;P2;SDS_P1;SDS_P2;PMS_P1;PMS_P2;Temp;Humidity;BMP_temperature;BMP_pressure;BME280_temperature;BME280_humidity;BME280_pressure;Samples;Min_cycle;Max_cycle;Signal;HPM_P1;HPM_P2
2022/04/17 00:00:48;;;;;;;2.67;2.20;;;20.20;38.90;;;;;;5135691;27;20408;-57
2022/04/17 00:03:14;;;;;;;4.93;2.63;;;20.20;38.90;;;;;;5117827;27;20040;-57
2022/04/17 00:05:39;;;;;;;2.78;2.47;;;20.20;38.90;;;;;;5113046;28;20051;-57
2022/04/17 00:08:06;;;;;;;4.97;2.40;;;20.20;38.90;;;;;;5129938;27;20039;-57
2022/04/17 00:10:31;;;;;;;2.83;2.53;;;20.20;38.90;;;;;;5114912;28;20081;-57
2022/04/17 00:12:57;;;;;;;2.97;2.30;;;20.20;38.90;;;;;;5109769;27;20083;-57
2022/04/17 00:15:23;;;;;;;2.65;2.40;;;20.20;38.80;;;;;;5126473;27;20060;-57
2022/04/17 00:17:49;;;;;;;2.90;2.70;;;20.20;38.80;;;;;;5120613;27;20039;-57
2022/04/17 00:20:16;;;;;;;3.33;2.47;;;20.20;38.80;;;;;;5134123;27;20103;-57
2022/04/17 00:22:45;;;;;;;4.25;2.63;;;20.20;38.80;;;;;;5132520;27;20462;-57
2022/04/17 00:25:12;;;;;;;3.30;2.50;;;20.20;38.80;;;;;;5130359;27;20035;-59
2022/04/17 00:27:40;;;;;;;2.63;2.42;;;20.20;38.80;;;;;;5114652;28;20043;-57
2022/04/17 00:30:07;;;;;;;2.58;2.38;;;20.10;38.60;;;;;;5114714;28;20423;-57
2022/04/17 00:32:34;;;;;;;2.47;2.28;;;20.10;38.70;;;;;;5113289;27;20091;-57
2022/04/17 00:35:00;;;;;;;3.85;2.55;;;20.10;38.60;;;;;;5111987;28;20081;-57
2022/04/17 00:37:26;;;;;;;3.08;2.67;;;20.10;38.60;;;;;;5109812;28;20043;-57
2022/04/17 00:39:52;;;;;;;2.80;2.42;;;20.10;39.40;;;;;;5112469;27;20391;-57
2022/04/17 00:42:18;;;;;;;3.92;2.75;;;20.10;38.60;;;;;;5114155;28;20051;-57
2022/04/17 00:44:43;;;;;;;3.53;2.83;;;20.10;38.60;;;;;;5114624;28;20035;-57
2022/04/17 00:47:11;;;;;;;3.00;2.55;;;20.10;38.60;;;;;;5114369;27;20081;-57
2022/04/17 00:49:37;;;;;;;2.72;2.47;;;20.10;38.50;;;;;;5114075;28;20091;-57
2022/04/17 00:52:04;;;;;;;3.15;2.53;;;20.10;38.50;;;;;;5110236;27;20114;-57
2022/04/17 00:54:30;;;;;;;2.80;2.50;;;20.10;38.50;;;;;;5121146;27;20044;-57
2022/04/17 00:56:56;;;;;;;2.72;2.30;;;20.10;38.50;;;;;;5122407;27;20028;-57
2022/04/17 00:59:23;;;;;;;3.20;2.55;;;20.10;38.50;;;;;;5119184;27;20061;-57
2022/04/17 01:01:49;;;;;;;2.97;2.60;;;20.10;38.50;;;;;;5118383;27;20075;-57
2022/04/17 01:04:15;;;;;;;2.90;2.60;;;20.10;38.50;;;;;;5114235;28;20090;-57
2022/04/17 01:06:41;;;;;;;2.75;2.25;;;20.00;38.40;;;;;;5111776;28;20394;-57
2022/04/17 01:09:07;;;;;;;2.53;2.33;;;20.00;38.40;;;;;;5120151;27;20045;-57
2022/04/17 01:11:35;;;;;;;2.50;2.30;;;20.00;38.40;;;;;;5122859;27;20036;-57
2022/04/17 01:14:03;;;;;;;3.70;2.50;;;20.00;38.40;;;;;;5109262;28;20054;-57
2022/04/17 01:16:29;;;;;;;2.92;2.40;;;20.00;38.40;;;;;;5121032;28;20388;-57
2022/04/17 01:19:01;;;;;;;3.05;2.40;;;20.00;38.40;;;;;;5116028;28;20031;-57
2022/04/17 01:21:28;;;;;;;2.58;2.38;;;20.00;38.40;;;;;;5134567;27;20046;-57
2022/04/17 01:26:58;;;;;;;3.35;2.58;;;20.00;38.40;;;;;;5112252;27;20085;-57
2022/04/17 01:29:37;;;;;;;3.53;2.70;;;20.00;38.40;;;;;;5113980;28;20043;-57
2022/04/17 01:32:05;;;;;;;2.85;2.55;;;20.00;38.40;;;;;;5110808;28;20520;-57
2022/04/17 01:34:31;;;;;;;2.88;2.60;;;20.00;38.40;;;;;;5116899;28;20297;-57
2022/04/17 01:36:58;;;;;;;3.10;2.60;;;20.00;38.40;;;;;;5114425;28;20042;-57
2022/04/17 01:39:24;;;;;;;2.75;2.53;;;20.00;38.30;;;;;;5113891;28;20050;-57
2022/04/17 01:41:53;;;;;;;2.80;2.50;;;20.00;38.30;;;;;;5118365;28;20374;-57
2022/04/17 01:44:19;;;;;;;2.80;2.50;;;20.00;38.30;;;;;;5131625;27;20114;-57
2022/04/17 01:46:45;;;;;;;3.25;2.80;;;20.00;38.30;;;;;;5133178;28;20127;-57
2022/04/17 01:49:15;;;;;;;3.53;2.50;;;20.00;38.30;;;;;;5134321;27;20036;-57
2022/04/17 01:51:42;;;;;;;3.80;2.63;;;20.00;38.30;;;;;;5113778;28;20035;-57
2022/04/17 01:54:10;;;;;;;2.78;2.50;;;19.90;38.20;;;;;;5117739;28;20386;-57
2022/04/17 01:56:37;;;;;;;2.85;2.30;;;19.90;38.30;;;;;;5135752;27;20039;-57
2022/04/17 01:59:05;;;;;;;5.38;2.80;;;19.90;38.20;;;;;;5134241;27;20104;-57
2022/04/17 02:01:31;;;;;;;2.70;2.40;;;19.90;38.20;;;;;;5129001;27;20047;-57
2022/04/17 02:03:57;;;;;;;3.53;2.67;;;19.90;38.20;;;;;;5133803;27;20039;-57
2022/04/17 02:06:22;;;;;;;2.55;2.35;;;19.90;38.20;;;;;;5138064;27;20046;-57
2022/04/17 02:08:51;;;;;;;3.47;2.50;;;19.90;38.20;;;;;;5133499;27;20035;-57
2022/04/17 02:11:20;;;;;;;3.08;2.72;;;19.90;38.20;;;;;;5137845;27;20074;-57
2022/04/17 02:13:46;;;;;;;3.42;2.65;;;19.90;38.20;;;;;;5116094;27;20170;-57
2022/04/17 02:16:13;;;;;;;2.65;2.45;;;19.90;38.20;;;;;;5126556;27;20488;-57
2022/04/17 02:18:38;;;;;;;3.22;2.65;;;19.90;38.20;;;;;;5135860;27;20035;-57
2022/04/17 02:21:04;;;;;;;2.85;2.65;;;19.90;38.20;;;;;;5137705;27;20039;-56
2022/04/17 02:23:30;;;;;;;2.65;2.45;;;19.90;38.20;;;;;;5124235;27;20039;-57
2022/04/17 02:25:55;;;;;;;3.10;2.80;;;19.90;38.20;;;;;;5118544;27;20030;-57
2022/04/17 02:28:21;;;;;;;2.92;2.60;;;19.90;38.20;;;;;;5134874;27;20039;-57
2022/04/17 02:30:46;;;;;;;2.83;2.50;;;19.90;38.20;;;;;;5123240;27;20380;-57
2022/04/17 02:33:12;;;;;;;2.40;2.20;;;19.90;38.20;;;;;;5116630;28;20035;-57
2022/04/17 02:35:37;;;;;;;2.85;2.58;;;19.80;38.10;;;;;;5121892;27;20043;-57
2022/04/17 02:38:04;;;;;;;2.75;2.28;;;19.80;38.10;;;;;;5131326;27;20058;-57
2022/04/17 02:40:30;;;;;;;2.75;2.55;;;19.80;38.10;;;;;;5116786;28;20031;-57
2022/04/17 02:42:57;;;;;;;2.88;2.58;;;19.80;38.10;;;;;;5115390;27;20116;-57
2022/04/17 02:45:23;;;;;;;2.90;2.50;;;19.90;38.10;;;;;;5130912;27;20046;-57
2022/04/17 02:47:51;;;;;;;3.42;2.35;;;19.80;38.10;;;;;;5137476;27;20084;-57
2022/04/17 02:50:19;;;;;;;2.97;2.67;;;19.80;38.00;;;;;;5112853;27;20081;-57
2022/04/17 02:52:46;;;;;;;3.03;2.33;;;19.80;38.00;;;;;;5116492;27;20122;-57
2022/04/17 02:55:12;;;;;;;3.10;2.47;;;19.80;38.00;;;;;;5134066;27;20462;-59
2022/04/17 02:57:38;;;;;;;3.78;2.95;;;19.80;38.00;;;;;;5128401;27;20042;-57
2022/04/17 03:00:08;;;;;;;2.58;2.38;;;19.80;38.00;;;;;;5121656;27;20363;-57
2022/04/17 03:05:36;;;;;;;3.35;2.53;;;19.80;38.00;;;;;;5117517;27;20278;-57
2022/04/17 03:08:12;;;;;;;3.03;2.67;;;19.80;38.10;;;;;;5116519;28;20043;-57
2022/04/17 03:10:40;;;;;;;2.88;2.60;;;19.80;38.00;;;;;;5115599;28;20052;-57
2022/04/17 03:13:07;;;;;;;3.03;2.72;;;19.80;38.00;;;;;;5127268;27;20106;-57
2022/04/17 03:15:34;;;;;;;2.65;2.45;;;19.80;38.00;;;;;;5133824;27;20482;-57
2022/04/17 03:18:00;;;;;;;2.80;2.50;;;19.80;38.00;;;;;;5129820;27;20422;-57
2022/04/17 03:20:29;;;;;;;5.50;2.95;;;19.80;38.00;;;;;;5114812;28;20094;-57
2022/04/17 03:22:55;;;;;;;3.53;2.65;;;19.80;38.00;;;;;;5114364;27;20497;-57
2022/04/17 03:25:21;;;;;;;2.58;2.38;;;19.70;38.00;;;;;;5136232;27;20535;-57
2022/04/17 03:27:46;;;;;;;3.13;2.80;;;19.80;38.00;;;;;;5125230;27;20061;-57
2022/04/17 03:30:15;;;;;;;2.88;2.58;;;19.80;38.00;;;;;;5114858;28;20494;-57
2022/04/17 03:32:41;;;;;;;2.60;2.40;;;19.70;37.90;;;;;;5116664;28;20043;-57
2022/04/17 03:35:08;;;;;;;3.05;2.60;;;19.70;37.90;;;;;;5130050;27;20074;-57
2022/04/17 03:37:33;;;;;;;2.67;2.45;;;19.70;37.90;;;;;;5136266;27;20127;-57
2022/04/17 03:39:59;;;;;;;3.45;2.80;;;19.70;37.90;;;;;;5135028;27;20079;-57
2022/04/17 03:42:24;;;;;;;3.88;2.70;;;19.70;38.00;;;;;;5122916;27;20090;-56
2022/04/17 03:44:50;;;;;;;2.90;2.65;;;19.70;37.90;;;;;;5115635;28;20035;-56
2022/04/17 03:47:16;;;;;;;2.75;2.55;;;19.70;37.90;;;;;;5112407;28;20138;-57
2022/04/17 03:49:43;;;;;;;2.78;2.55;;;19.70;37.90;;;;;;5126411;27;20110;-56
2022/04/17 03:52:08;;;;;;;3.38;2.80;;;19.70;37.90;;;;;;5118280;27;20086;-57
2022/04/17 03:54:34;;;;;;;3.33;2.80;;;19.70;37.90;;;;;;5115301;28;20047;-57
2022/04/17 03:56:59;;;;;;;3.00;2.60;;;19.70;37.90;;;;;;5112576;27;20040;-56
2022/04/17 03:59:25;;;;;;;3.58;2.67;;;19.70;37.90;;;;;;5116488;27;20443;-57
2022/04/17 04:01:50;;;;;;;3.00;2.70;;;19.70;37.90;;;;;;5135614;27;20039;-56
2022/04/17 04:04:16;;;;;;;2.42;2.22;;;19.70;37.90;;;;;;5131796;27;20092;-57
2022/04/17 04:06:42;;;;;;;3.03;2.72;;;19.70;37.90;;;;;;5119032;27;20040;-57
2022/04/17 04:09:08;;;;;;;2.70;2.50;;;19.70;37.90;;;;;;5112557;28;20040;-57
2022/04/17 04:11:33;;;;;;;3.90;2.58;;;19.60;37.80;;;;;;5129415;27;20370;-57
2022/04/17 04:14:00;;;;;;;3.40;2.65;;;19.60;37.80;;;;;;5134964;27;20062;-59
2022/04/17 04:16:26;;;;;;;3.35;2.55;;;19.60;37.80;;;;;;5114982;28;20043;-57
2022/04/17 04:18:51;;;;;;;3.47;2.80;;;19.60;37.80;;;;;;5126982;27;20470;-57
2022/04/17 04:21:17;;;;;;;3.15;2.85;;;19.60;37.80;;;;;;5135134;27;20035;-57
2022/04/17 04:23:43;;;;;;;3.58;2.80;;;19.60;37.80;;;;;;5131691;27;20031;-57
2022/04/17 04:26:08;;;;;;;4.28;2.88;;;19.60;37.80;;;;;;5115098;27;20047;-56
2022/04/17 04:28:36;;;;;;;2.85;2.60;;;19.60;37.80;;;;;;5114742;27;20046;-58
2022/04/17 04:31:07;;;;;;;3.03;2.60;;;19.60;37.80;;;;;;5126453;27;20036;-56
2022/04/17 04:33:37;;;;;;;2.70;2.47;;;19.60;37.80;;;;;;5111708;28;20114;-57
2022/04/17 04:36:04;;;;;;;2.88;2.55;;;19.60;37.80;;;;;;5112085;27;20455;-57
2022/04/17 04:38:31;;;;;;;2.47;2.28;;;19.60;37.80;;;;;;5122710;27;20043;-56
2022/04/17 04:40:57;;;;;;;3.03;2.83;;;19.60;37.80;;;;;;5135115;27;20043;-56
2022/04/17 04:43:23;;;;;;;3.55;2.40;;;19.60;37.80;;;;;;5134435;27;20054;-57
2022/04/17 04:46:06;;;;;;;2.60;2.40;;;19.60;37.80;;;;;;5115170;27;20087;-57
2022/04/17 04:51:28;;;;;;;2.90;2.60;;;19.70;37.90;;;;;;5115862;27;20039;-57
2022/04/17 04:53:55;;;;;;;2.80;2.55;;;19.60;37.90;;;;;;5114977;27;20427;-57
2022/04/17 04:56:21;;;;;;;2.47;2.10;;;19.70;38.00;;;;;;5130884;27;20126;-57
2022/04/17 04:58:47;;;;;;;2.75;2.40;;;19.70;38.00;;;;;;5130517;27;20121;-57
2022/04/17 05:01:13;;;;;;;2.80;2.50;;;19.70;38.00;;;;;;5134826;27;20035;-56
2022/04/17 05:03:39;;;;;;;2.50;2.30;;;19.70;38.00;;;;;;5111708;27;20035;-57
2022/04/17 05:06:05;;;;;;;2.83;2.38;;;19.70;38.10;;;;;;5112147;28;20065;-57
2022/04/17 05:08:32;;;;;;;3.15;2.85;;;19.70;38.10;;;;;;5111109;28;20038;-57
2022/04/17 05:10:57;;;;;;;3.08;2.78;;;19.70;38.10;;;;;;5112634;28;20047;-56
2022/04/17 05:13:23;;;;;;;3.03;2.72;;;19.70;38.00;;;;;;5112161;28;20041;-56
2022/04/17 05:15:49;;;;;;;3.30;2.63;;;19.70;38.00;;;;;;5114231;28;20083;-57
2022/04/17 05:18:15;;;;;;;2.72;2.45;;;19.80;38.00;;;;;;5111556;28;20119;-57
2022/04/17 05:20:41;;;;;;;2.85;2.30;;;19.80;38.10;;;;;;5125751;28;20067;-56
2022/04/17 05:23:25;;;;;;;3.10;2.35;;;19.80;38.10;;;;;;5131893;27;20027;-57
2022/04/17 05:25:53;;;;;;;2.80;2.60;;;19.80;38.10;;;;;;5129574;27;20119;-56
2022/04/17 05:28:20;;;;;;;3.35;2.90;;;19.80;38.10;;;;;;5134578;27;20375;-57
2022/04/17 05:30:46;;;;;;;2.60;2.40;;;19.80;38.00;;;;;;5135285;27;20374;-57
2022/04/17 05:33:11;;;;;;;2.80;2.60;;;19.80;38.10;;;;;;5137524;27;20079;-56
2022/04/17 05:35:38;;;;;;;2.22;2.03;;;19.80;38.10;;;;;;5128738;27;20082;-56
2022/04/17 05:38:05;;;;;;;2.60;2.40;;;19.90;38.10;;;;;;5116863;28;20486;-57
2022/04/17 05:40:47;;;;;;;2.40;2.22;;;19.90;38.20;;;;;;5118029;28;20074;-57
2022/04/17 05:43:14;;;;;;;2.78;2.58;;;19.90;38.20;;;;;;5122409;27;20054;-57
2022/04/17 05:45:40;;;;;;;3.10;2.60;;;19.90;38.20;;;;;;5135926;27;20114;-58
2022/04/17 05:48:09;;;;;;;2.50;2.30;;;19.90;38.20;;;;;;5129392;27;20028;-57
2022/04/17 05:50:36;;;;;;;2.92;2.70;;;19.90;38.20;;;;;;5120621;27;20050;-57
2022/04/17 05:53:02;;;;;;;2.97;2.47;;;19.90;38.20;;;;;;5116333;27;20043;-57
2022/04/17 05:55:28;;;;;;;3.10;2.83;;;19.90;38.20;;;;;;5118339;28;20459;-57
2022/04/17 05:57:54;;;;;;;2.50;2.30;;;19.90;38.20;;;;;;5114847;27;20050;-57
2022/04/17 06:00:20;;;;;;;3.05;2.60;;;20.00;38.20;;;;;;5138701;27;20031;-56
2022/04/17 06:02:46;;;;;;;3.00;2.70;;;19.90;38.20;;;;;;5138085;27;20101;-57
2022/04/17 06:05:13;;;;;;;4.10;2.42;;;20.00;38.20;;;;;;5138113;27;20084;-56
2022/04/17 06:07:39;;;;;;;3.33;2.72;;;20.00;38.20;;;;;;5123928;27;20047;-57
2022/04/17 06:10:10;;;;;;;3.50;2.55;;;20.00;38.20;;;;;;5117676;27;20381;-56
2022/04/17 06:12:36;;;;;;;2.88;2.67;;;20.00;38.20;;;;;;5131016;27;20039;-57
2022/04/17 06:15:03;;;;;;;2.58;2.38;;;20.00;38.20;;;;;;5133589;27;20043;-57
2022/04/17 06:17:38;;;;;;;2.80;2.60;;;20.00;38.20;;;;;;5114798;27;20039;-57
2022/04/17 06:20:06;;;;;;;2.90;2.65;;;20.00;38.20;;;;;;5117426;27;20054;-57
2022/04/17 06:22:33;;;;;;;3.30;3.00;;;20.00;38.20;;;;;;5120283;27;20035;-57
2022/04/17 06:24:59;;;;;;;2.95;2.72;;;20.00;38.10;;;;;;5117097;27;20042;-57
2022/04/17 06:27:25;;;;;;;3.10;2.65;;;20.00;38.20;;;;;;5125038;27;20043;-57
2022/04/17 06:29:50;;;;;;;3.53;2.60;;;20.00;38.30;;;;;;5134691;27;20114;-57
2022/04/17 06:32:16;;;;;;;2.75;2.42;;;20.10;38.40;;;;;;5128377;27;20043;-57
2022/04/17 06:34:41;;;;;;;2.80;2.42;;;20.10;38.60;;;;;;5137098;27;20034;-57
2022/04/17 06:37:07;;;;;;;3.83;2.58;;;20.10;38.70;;;;;;5158160;27;20046;-57
2022/04/17 06:39:32;;;;;;;2.83;2.45;;;20.10;38.90;;;;;;5148464;27;20031;-57
2022/04/17 06:41:58;;;;;;;3.58;2.53;;;20.10;39.60;;;;;;5122483;27;20031;-57
2022/04/17 06:44:23;;;;;;;4.00;2.50;;;20.20;38.90;;;;;;5134549;27;20035;-57
2022/04/17 06:46:49;;;;;;;3.83;2.42;;;20.20;39.00;;;;;;5132373;27;20062;-57
2022/04/17 06:49:14;;;;;;;3.25;2.67;;;20.20;39.00;;;;;;5119894;27;20039;-57
2022/04/17 06:51:40;;;;;;;2.10;2.00;;;20.20;39.00;;;;;;5125043;27;20039;-57
2022/04/17 06:54:06;;;;;;;3.47;2.60;;;20.20;39.20;;;;;;5116532;28;20067;-57
2022/04/17 06:56:31;;;;;;;5.05;2.50;;;20.20;39.40;;;;;;5116412;28;20502;-57
2022/04/17 06:58:57;;;;;;;5.15;2.53;;;20.30;39.60;;;;;;5116406;28;20036;-57
2022/04/17 07:01:23;;;;;;;4.63;2.80;;;20.30;39.80;;;;;;5129433;27;20039;-56
2022/04/17 07:03:48;;;;;;;3.63;2.88;;;20.30;40.20;;;;;;5134073;27;20383;-57
2022/04/17 07:06:14;;;;;;;3.50;2.78;;;20.40;41.50;;;;;;5100161;28;20039;-57
2022/04/17 07:08:39;;;;;;;4.35;2.78;;;20.30;42.70;;;;;;5116697;28;20028;-57
2022/04/17 07:11:05;;;;;;;3.53;2.72;;;20.40;43.10;;;;;;5116265;28;20043;-56
2022/04/17 07:13:31;;;;;;;3.30;2.88;;;20.50;44.30;;;;;;5116242;28;20379;-57
2022/04/17 07:15:57;;;;;;;4.88;2.45;;;20.50;44.90;;;;;;5131278;27;20101;-57
2022/04/17 07:18:22;;;;;;;3.88;2.50;;;20.50;45.00;;;;;;5136802;27;20070;-57
2022/04/17 07:20:48;;;;;;;5.35;2.67;;;20.50;44.80;;;;;;5136668;27;20366;-58
2022/04/17 07:23:14;;;;;;;3.65;2.20;;;20.60;44.70;;;;;;5136517;27;20039;-58
2022/04/17 07:25:40;;;;;;;4.93;2.55;;;20.60;44.60;;;;;;5133246;27;20031;-58
2022/04/17 07:28:12;;;;;;;3.58;2.70;;;20.70;44.50;;;;;;5114762;28;20106;-57
2022/04/17 07:30:37;;;;;;;4.40;2.80;;;20.70;44.40;;;;;;5115920;28;20059;-58
2022/04/17 07:33:03;;;;;;;4.18;2.80;;;20.80;44.30;;;;;;5115758;28;20471;-58
2022/04/17 07:35:30;;;;;;;6.90;2.78;;;20.80;44.50;;;;;;5115527;28;20035;-57
2022/04/17 07:37:58;;;;;;;9.00;2.72;;;20.80;44.60;;;;;;5123243;27;20042;-58
2022/04/17 07:40:26;;;;;;;4.43;2.30;;;20.80;44.60;;;;;;5124516;27;20047;-58
2022/04/17 07:42:54;;;;;;;4.75;2.70;;;20.80;44.60;;;;;;5115585;28;20122;-58
2022/04/17 07:45:20;;;;;;;4.20;2.50;;;20.90;44.80;;;;;;5134613;27;20115;-58
2022/04/17 07:47:47;;;;;;;3.83;2.53;;;20.90;44.80;;;;;;5133012;27;20031;-57
2022/04/17 07:50:17;;;;;;;3.58;2.35;;;20.90;44.40;;;;;;5136565;27;20078;-58
2022/04/17 07:52:43;;;;;;;4.45;2.30;;;20.90;44.40;;;;;;5136606;27;20371;-58
2022/04/17 07:55:11;;;;;;;4.07;2.50;;;20.90;44.20;;;;;;5122183;27;20421;-57
2022/04/17 08:00:27;;;;;;;3.83;2.30;;;20.90;44.20;;;;;;5135944;27;20085;-57
2022/04/17 08:02:55;;;;;;;;;;;20.90;44.30;;;;;;5136459;27;20042;-57
2022/04/17 08:05:22;;;;;;;3.72;2.08;;;20.90;45.00;;;;;;5135819;27;19989;-57
2022/04/17 08:07:47;;;;;;;3.95;2.50;;;20.90;44.10;;;;;;5136089;27;20118;-58
2022/04/17 08:10:13;;;;;;;3.33;2.20;;;20.90;44.10;;;;;;5135579;27;20122;-58
2022/04/17 08:12:40;;;;;;;3.33;2.30;;;20.90;44.00;;;;;;5134421;27;20035;-57
2022/04/17 08:15:06;;;;;;;3.97;2.45;;;20.90;43.90;;;;;;5135406;27;20458;-57
2022/04/17 08:17:32;;;;;;;4.13;2.17;;;21.00;44.30;;;;;;5136177;27;20047;-58
2022/04/17 08:19:57;;;;;;;5.53;2.40;;;21.00;44.70;;;;;;5124311;27;20041;-58
2022/04/17 08:22:23;;;;;;;3.20;2.08;;;21.00;44.70;;;;;;5123232;27;20043;-58
2022/04/17 08:24:48;;;;;;;3.20;2.50;;;21.00;45.00;;;;;;5117766;27;20039;-57
2022/04/17 08:27:14;;;;;;;2.70;2.50;;;21.10;45.20;;;;;;5122159;27;20039;-58
2022/04/17 08:29:39;;;;;;;4.15;2.83;;;21.10;45.30;;;;;;5124569;27;20056;-57
2022/04/17 08:32:05;;;;;;;5.53;3.10;;;21.10;45.50;;;;;;5135810;27;20062;-57
2022/04/17 08:34:31;;;;;;;3.90;2.90;;;21.10;45.70;;;;;;5135196;27;20125;-57
2022/04/17 08:36:56;;;;;;;5.30;3.08;;;21.20;45.80;;;;;;5135197;27;20043;-57
2022/04/17 08:39:22;;;;;;;5.05;3.20;;;21.20;45.70;;;;;;5134836;27;20035;-57
2022/04/17 08:41:49;;;;;;;5.75;3.25;;;21.20;45.40;;;;;;5135087;27;20057;-57
2022/04/17 08:44:15;;;;;;;7.93;3.60;;;21.20;45.60;;;;;;5126975;27;20054;-58
2022/04/17 08:46:44;;;;;;;4.47;3.58;;;21.20;45.80;;;;;;5115227;28;20443;-58
2022/04/17 08:49:10;;;;;;;6.13;3.55;;;21.20;45.90;;;;;;5124829;27;20043;-57
2022/04/17 08:51:38;;;;;;;5.85;4.10;;;21.30;45.90;;;;;;5121208;27;20374;-58
2022/04/17 08:54:05;;;;;;;4.72;4.10;;;21.30;46.10;;;;;;5111950;27;20069;-57
2022/04/17 08:56:30;;;;;;;5.93;4.07;;;21.30;46.40;;;;;;5132908;27;20039;-58
2022/04/17 08:58:56;;;;;;;5.35;3.72;;;21.30;46.30;;;;;;5124595;27;20046;-57
2022/04/17 09:01:22;;;;;;;5.45;4.18;;;21.40;46.50;;;;;;5114425;28;20096;-57
2022/04/17 09:03:47;;;;;;;5.28;3.50;;;21.40;46.60;;;;;;5114115;28;20051;-57
2022/04/17 09:06:20;;;;;;;4.65;3.45;;;21.40;46.70;;;;;;5118858;27;20047;-57
2022/04/17 09:09:05;;;;;;;4.53;3.22;;;21.40;46.80;;;;;;5115178;27;20481;-58
2022/04/17 09:11:33;;;;;;;4.72;3.35;;;21.40;46.90;;;;;;5114332;27;20118;-58
2022/04/17 09:14:05;;;;;;;5.65;3.33;;;21.40;46.90;;;;;;5111166;27;20060;-60
2022/04/17 09:16:35;;;;;;;7.55;3.30;;;21.40;46.90;;;;;;5113566;28;20459;-57
2022/04/17 09:19:13;;;;;;;5.05;2.80;;;21.40;46.60;;;;;;5114645;28;20046;-57
2022/04/17 09:21:39;;;;;;;5.20;2.97;;;21.40;46.40;;;;;;5129464;28;20166;-57
2022/04/17 09:24:14;;;;;;;3.63;3.00;;;21.40;46.40;;;;;;5112979;27;20517;-55
2022/04/17 09:26:51;;;;;;;3.85;2.90;;;21.40;46.30;;;;;;5114861;28;20039;-56
2022/04/17 09:29:24;;;;;;;5.97;2.97;;;21.40;46.00;;;;;;5118347;27;20028;-56
2022/04/17 09:32:06;;;;;;;6.43;2.90;;;21.40;45.70;;;;;;5118804;28;20070;-57
2022/04/17 09:34:50;;;;;;;6.70;2.60;;;21.50;44.70;;;;;;5131718;27;20097;-57
2022/04/17 09:37:23;;;;;;;3.38;2.55;;;21.40;44.50;;;;;;5134408;27;20043;-57
2022/04/17 09:39:50;;;;;;;5.05;2.65;;;21.40;44.10;;;;;;5129216;27;20092;-57
2022/04/17 09:42:26;;;;;;;4.93;2.80;;;21.40;43.90;;;;;;5111291;28;20042;-56
2022/04/17 09:44:55;;;;;;;3.08;2.30;;;21.40;43.00;;;;;;5114298;28;20118;-56
2022/04/17 09:47:21;;;;;;;3.53;2.60;;;21.40;43.10;;;;;;5113722;28;20035;-56
2022/04/17 09:49:54;;;;;;;4.65;2.95;;;21.40;42.70;;;;;;5109559;28;20040;-57
2022/04/17 09:52:21;;;;;;;5.10;2.70;;;21.40;42.40;;;;;;5113827;28;20101;-57
2022/04/17 09:54:48;;;;;;;3.80;2.58;;;21.40;42.30;;;;;;5109131;27;20035;-58
2022/04/17 09:57:29;;;;;;;4.28;2.50;;;21.40;42.10;;;;;;5131571;27;20039;-57
2022/04/17 10:00:07;;;;;;;4.65;2.50;;;21.40;42.50;;;;;;5134681;27;20039;-57
2022/04/17 10:02:33;;;;;;;3.83;2.88;;;21.40;41.80;;;;;;5134745;27;20075;-57
2022/04/17 10:05:00;;;;;;;5.40;2.30;;;21.40;41.90;;;;;;5134698;27;20054;-56
2022/04/17 10:07:27;;;;;;;4.78;2.65;;;21.40;41.90;;;;;;5131513;27;20095;-57
2022/04/17 10:09:52;;;;;;;3.17;2.53;;;21.40;42.00;;;;;;5131276;27;20035;-57
2022/04/17 10:12:20;;;;;;;8.23;2.30;;;21.40;41.90;;;;;;5113749;27;20091;-57
2022/04/17 10:14:49;;;;;;;3.40;2.33;;;21.50;41.90;;;;;;5118122;28;20488;-57
2022/04/17 10:17:20;;;;;;;3.05;2.28;;;21.50;41.70;;;;;;5112865;27;20413;-57
2022/04/17 10:19:47;;;;;;;2.67;2.05;;;21.50;41.50;;;;;;5127401;27;20047;-57
2022/04/17 10:22:18;;;;;;;4.50;2.45;;;21.50;41.20;;;;;;5122880;27;20118;-57
2022/04/17 10:24:51;;;;;;;3.15;2.42;;;21.50;41.00;;;;;;5117789;28;20119;-57
2022/04/17 10:27:21;;;;;;;3.20;2.28;;;21.50;40.90;;;;;;5117214;27;20036;-57
2022/04/17 10:29:52;;;;;;;5.07;2.65;;;21.50;40.40;;;;;;5117083;28;20039;-57
2022/04/17 10:32:34;;;;;;;3.20;1.88;;;21.50;40.50;;;;;;5117099;28;20044;-57
2022/04/17 10:35:03;;;;;;;2.30;2.00;;;21.50;40.40;;;;;;5116670;28;20411;-57
2022/04/17 10:38:00;;;;;;;4.13;2.22;;;21.50;40.70;;;;;;5116885;28;20036;-57
2022/04/17 10:40:26;;;;;;;3.00;2.35;;;21.50;40.80;;;;;;5117054;28;20093;-57
2022/04/17 10:42:56;;;;;;;2.67;2.10;;;21.50;41.10;;;;;;5116848;28;20040;-57
2022/04/17 10:45:22;;;;;;;3.25;1.90;;;21.40;41.00;;;;;;5116742;28;20036;-57
2022/04/17 10:48:09;;;;;;;2.75;2.10;;;21.50;41.10;;;;;;5127379;27;20118;-57
2022/04/17 10:50:49;;;;;;;3.42;1.98;;;21.50;41.00;;;;;;5131675;27;20079;-57
2022/04/17 10:53:31;;;;;;;2.38;2.13;;;21.50;41.00;;;;;;5116717;27;20581;-57
2022/04/17 10:56:04;;;;;;;4.15;1.73;;;21.40;40.80;;;;;;5137589;27;20114;-57
2022/04/17 10:58:43;;;;;;;3.95;1.92;;;21.40;40.90;;;;;;5125950;27;20467;-57
2022/04/17 11:01:10;;;;;;;2.03;1.60;;;21.40;40.80;;;;;;5119026;27;20047;-57
2022/04/17 11:03:36;;;;;;;2.47;1.92;;;21.40;40.80;;;;;;5131438;27;20047;-57
2022/04/17 11:06:30;;;;;;;2.10;1.60;;;21.40;40.60;;;;;;5125806;27;20035;-57
2022/04/17 11:09:04;;;;;;;3.03;1.55;;;21.40;40.80;;;;;;5116255;28;20036;-58
2022/04/17 11:11:35;;;;;;;2.40;1.50;;;21.40;41.00;;;;;;5128121;27;20043;-57
2022/04/17 11:14:10;;;;;;;3.55;1.70;;;21.40;41.00;;;;;;5136698;27;20051;-56
2022/04/17 11:16:51;;;;;;;4.05;1.65;;;21.40;40.60;;;;;;5114970;27;20091;-56
2022/04/17 11:19:33;;;;;;;2.72;2.00;;;21.40;40.50;;;;;;5115779;28;20376;-56
2022/04/17 11:22:07;;;;;;;3.13;1.75;;;21.40;40.50;;;;;;5116297;28;20045;-56
2022/04/17 11:24:56;;;;;;;3.03;1.58;;;21.40;40.80;;;;;;5116597;28;20046;-56
2022/04/17 11:27:36;;;;;;;2.00;1.75;;;21.40;41.40;;;;;;5112369;28;20051;-57
2022/04/17 11:30:03;;;;;;;4.72;1.48;;;21.40;42.20;;;;;;5115779;28;20090;-60
2022/04/17 11:32:29;;;;;;;4.82;1.77;;;21.40;42.10;;;;;;5115751;28;20043;-74
2022/04/17 11:34:56;;;;;;;2.38;1.55;;;21.40;41.80;;;;;;5114668;28;20055;-56
2022/04/17 11:37:23;;;;;;;3.47;1.65;;;21.40;41.70;;;;;;5115664;28;20054;-56
2022/04/17 11:39:50;;;;;;;2.45;1.48;;;21.40;41.70;;;;;;5115612;28;20430;-56
2022/04/17 11:42:16;;;;;;;4.78;1.58;;;21.40;41.70;;;;;;5116246;27;20031;-56
2022/04/17 11:44:49;;;;;;;1.90;1.60;;;21.40;41.60;;;;;;5119717;27;20039;-55
2022/04/17 11:47:16;;;;;;;2.17;1.50;;;21.40;41.70;;;;;;5115582;28;20043;-56
2022/04/17 11:49:43;;;;;;;2.42;1.25;;;21.40;41.70;;;;;;5115380;28;20047;-56
2022/04/17 11:52:13;;;;;;;3.15;1.35;;;21.40;41.70;;;;;;5119198;27;20031;-56
2022/04/17 11:54:39;;;;;;;3.60;1.20;;;21.40;41.60;;;;;;5121855;27;20027;-56
2022/04/17 11:57:05;;;;;;;1.40;1.27;;;21.40;41.60;;;;;;5121126;27;20039;-56
2022/04/17 11:59:48;;;;;;;2.80;1.50;;;21.40;41.70;;;;;;5114115;28;20039;-56
2022/04/17 12:02:16;;;;;;;2.05;1.00;;;21.30;41.50;;;;;;5116661;27;20052;-56
2022/04/17 12:04:47;;;;;;;2.03;1.52;;;21.30;41.50;;;;;;5114961;27;20035;-56
2022/04/17 12:07:14;;;;;;;;;;;21.30;41.50;;;;;;5124931;27;20036;-56
2022/04/17 12:09:40;;;;;;;4.38;1.50;;;21.30;41.40;;;;;;5135617;27;19916;-56
2022/04/17 12:12:19;;;;;;;1.77;1.20;;;21.30;41.60;;;;;;5133042;27;20131;-56
2022/04/17 12:14:52;;;;;;;1.88;1.20;;;21.30;41.50;;;;;;5121430;27;20057;-57
2022/04/17 12:17:21;;;;;;;1.95;1.13;;;21.30;41.60;;;;;;5135606;27;20050;-56
2022/04/17 12:19:53;;;;;;;3.85;1.40;;;21.30;41.50;;;;;;5121863;27;20114;-56
2022/04/17 12:22:18;;;;;;;2.92;1.30;;;21.30;41.50;;;;;;5131359;27;20080;-56
2022/04/17 12:24:45;;;;;;;2.25;1.35;;;21.30;41.50;;;;;;5111575;27;20043;-56
2022/04/17 12:27:13;;;;;;;1.58;1.20;;;21.30;41.50;;;;;;5125682;27;20039;-56
2022/04/17 12:29:40;;;;;;;1.95;1.38;;;21.30;41.50;;;;;;5111507;27;20036;-56
2022/04/17 12:32:19;;;;;;;1.90;1.40;;;21.30;41.50;;;;;;5135359;27;20085;-56
2022/04/17 12:34:45;;;;;;;1.88;1.40;;;21.30;41.40;;;;;;5135258;27;20088;-56
2022/04/17 12:37:21;;;;;;;2.60;1.45;;;21.30;41.40;;;;;;5116364;27;20036;-56
2022/04/17 12:39:48;;;;;;;2.03;1.30;;;21.30;41.40;;;;;;5130182;27;20068;-56
2022/04/17 12:42:18;;;;;;;3.63;1.55;;;21.30;41.60;;;;;;5132540;27;20411;-56
2022/04/17 12:44:44;;;;;;;3.72;1.48;;;21.30;41.50;;;;;;5130168;27;20078;-56
2022/04/17 12:47:19;;;;;;;2.33;1.48;;;21.30;41.50;;;;;;5114514;28;20047;-56
2022/04/17 12:49:44;;;;;;;2.28;1.40;;;21.30;41.50;;;;;;5122763;27;20070;-56
2022/04/17 12:52:20;;;;;;;6.53;2.65;;;21.30;41.50;;;;;;5134761;27;20521;-55
2022/04/17 12:54:45;;;;;;;3.58;3.28;;;21.30;37.50;;;;;;5132020;27;20046;-55
2022/04/17 12:57:13;;;;;;;6.55;3.30;;;21.30;35.90;;;;;;5132004;27;20359;-55
2022/04/17 12:59:42;;;;;;;3.83;3.50;;;21.20;34.50;;;;;;5131920;27;20075;-56
2022/04/17 13:02:33;;;;;;;4.13;3.30;;;21.20;33.40;;;;;;5125646;27;20147;-56
2022/04/17 13:04:59;;;;;;;4.30;3.60;;;21.10;33.20;;;;;;5114990;28;20440;-55